Time;durP1;ratioP1;P1;durP2;ratioP2;P2;SDS_P1;SDS_P2;PMS_P1;PMS_P2;Temp;Humidity;BMP_temperature;BMP_pressure;BME280_temperature;BME280_humidity;BME280_pressure;Samples;Min_cycle;Max_cycle;Signal;HPM_P1;HPM_P2
2020/12/22 00:03:28;;;;;;;;;42.75;37.00;;;;;;;;12270830;28;8878;-47
2020/12/22 00:09:30;;;;;;;;;51.00;43.75;;;;;;;;12287059;28;8858;-47
2020/12/22 00:15:31;;;;;;;;;52.75;43.75;;;;;;;;12287978;28;8843;-45
2020/12/22 00:21:41;;;;;;;;;45.00;41.25;;;;;;;;12287394;28;8858;-52
2020/12/22 00:27:42;;;;;;;;;41.25;36.75;;;;;;;;12288020;28;9648;-47
2020/12/22 00:33:44;;;;;;;;;57.50;44.25;;;;;;;;12286726;28;8843;-47
2020/12/22 00:39:45;;;;;;;;;46.00;43.75;;;;;;;;12286620;28;8846;-45
2020/12/22 00:45:47;;;;;;;;;52.25;44.25;;;;;;;;12286932;28;8889;-46
2020/12/22 00:52:01;;;;;;;;;51.00;44.50;;;;;;;;12283072;28;8854;-49
2020/12/22 00:58:03;;;;;;;;;50.75;42.75;;;;;;;;12286723;28;8839;-49
2020/12/22 01:04:07;;;;;;;;;65.25;47.50;;;;;;;;12268086;28;8867;-49
2020/12/22 01:10:08;;;;;;;;;53.50;45.25;;;;;;;;12284945;28;8859;-46
2020/12/22 01:16:12;;;;;;;;;50.50;43.25;;;;;;;;12286404;28;8859;-46
2020/12/22 01:22:18;;;;;;;;;51.25;44.25;;;;;;;;12284027;29;8858;-49
2020/12/22 01:28:19;;;;;;;;;40.25;34.00;;;;;;;;12285145;29;9604;-47
2020/12/22 01:34:20;;;;;;;;;46.75;42.50;;;;;;;;12284960;28;8846;-47
2020/12/22 01:40:22;;;;;;;;;51.00;44.25;;;;;;;;12285681;29;8962;-47
2020/12/22 01:46:25;;;;;;;;;53.25;44.25;;;;;;;;12286275;29;8854;-49
2020/12/22 01:52:35;;;;;;;;;47.75;43.50;;;;;;;;12282610;29;8851;-51
2020/12/22 01:58:36;;;;;;;;;49.50;43.75;;;;;;;;12284985;29;8843;-50
2020/12/22 02:04:37;;;;;;;;;48.25;43.25;;;;;;;;12283748;29;9471;-48
2020/12/22 02:10:50;;;;;;;;;57.75;45.25;;;;;;;;12284318;29;8863;-52
2020/12/22 02:16:51;;;;;;;;;49.75;42.75;;;;;;;;12285374;29;8854;-49
2020/12/22 02:22:58;;;;;;;;;50.25;42.00;;;;;;;;12282413;28;8909;-49
2020/12/22 02:28:59;;;;;;;;;53.00;44.75;;;;;;;;12293720;28;8886;-49
2020/12/22 02:35:01;;;;;;;;;51.25;45.25;;;;;;;;12290785;28;8882;-48
2020/12/22 02:41:03;;;;;;;;;56.25;43.00;;;;;;;;12291972;28;8893;-49
2020/12/22 02:47:12;;;;;;;;;53.50;43.75;;;;;;;;12292165;28;8877;-49
2020/12/22 02:53:14;;;;;;;;;56.00;46.25;;;;;;;;12291311;28;8863;-49
2020/12/22 02:59:15;;;;;;;;;51.75;45.25;;;;;;;;12291729;28;8843;-52
2020/12/22 03:05:17;;;;;;;;;56.00;47.75;;;;;;;;12290496;28;8855;-51
2020/12/22 03:11:19;;;;;;;;;61.25;45.00;;;;;;;;12290589;28;8897;-47
2020/12/22 03:17:21;;;;;;;;;62.00;48.00;;;;;;;;12290515;28;9589;-45
2020/12/22 03:23:34;;;;;;;;;46.75;43.50;;;;;;;;12290089;28;8834;-49
2020/12/22 03:29:35;;;;;;;;;52.00;44.50;;;;;;;;12290879;28;8866;-50
2020/12/22 03:35:37;;;;;;;;;58.75;48.25;;;;;;;;12288317;28;8889;-48
2020/12/22 03:41:38;;;;;;;;;59.50;50.25;;;;;;;;12288811;28;8882;-47
2020/12/22 03:47:41;;;;;;;;;55.50;46.00;;;;;;;;12288844;28;8835;-49
2020/12/22 03:53:55;;;;;;;;;57.00;47.75;;;;;;;;12277285;28;8870;-50
2020/12/22 03:59:56;;;;;;;;;69.50;53.50;;;;;;;;12288304;28;8981;-49
2020/12/22 04:05:57;;;;;;;;;63.75;50.50;;;;;;;;12286225;28;8859;-50
2020/12/22 04:11:59;;;;;;;;;67.25;50.25;;;;;;;;12287993;28;8873;-51
2020/12/22 04:18:00;;;;;;;;;66.50;52.50;;;;;;;;12288316;28;8893;-46
2020/12/22 04:24:14;;;;;;;;;69.00;54.00;;;;;;;;12287944;28;9616;-50
2020/12/22 04:30:15;;;;;;;;;67.00;50.75;;;;;;;;12288172;28;8965;-47
2020/12/22 04:36:18;;;;;;;;;65.75;52.00;;;;;;;;12287083;28;8855;-48
2020/12/22 04:42:21;;;;;;;;;68.50;53.50;;;;;;;;12286494;28;8855;-48
2020/12/22 04:48:25;;;;;;;;;67.50;56.00;;;;;;;;12286153;28;8877;-48
2020/12/22 04:54:33;;;;;;;;;63.00;52.50;;;;;;;;12285422;28;8850;-50
2020/12/22 05:07:12;;;;;;;;;58.25;48.00;;;;;;;;12340936;23;9001;-47
2020/12/22 05:13:16;;;;;;;;;71.25;57.00;;;;;;;;12237540;29;8831;-47
2020/12/22 05:19:19;;;;;;;;;65.50;51.25;;;;;;;;12238604;29;8857;-49
2020/12/22 05:25:21;;;;;;;;;70.50;54.50;;;;;;;;12239079;29;8847;-53
2020/12/22 05:31:23;;;;;;;;;60.75;49.00;;;;;;;;12237767;29;8861;-47
2020/12/22 05:37:27;;;;;;;;;56.75;49.50;;;;;;;;12239324;29;8839;-49
2020/12/22 05:43:42;;;;;;;;;63.50;51.50;;;;;;;;12234974;29;9618;-49
2020/12/22 05:49:54;;;;;;;;;63.50;51.75;;;;;;;;12238256;29;8843;-47
2020/12/22 05:55:55;;;;;;;;;65.00;52.00;;;;;;;;12241851;29;8896;-50
2020/12/22 06:01:58;;;;;;;;;67.50;53.75;;;;;;;;12245979;28;8851;-48
2020/12/22 06:08:00;;;;;;;;;66.00;50.00;;;;;;;;12204951;29;10008;-47
2020/12/22 06:14:04;;;;;;;;;65.50;52.50;;;;;;;;12212601;29;8839;-47
2020/12/22 06:20:05;;;;;;;;;65.50;50.50;;;;;;;;12209257;29;8856;-49
2020/12/22 06:26:07;;;;;;;;;71.75;59.75;;;;;;;;12202560;29;8842;-50
2020/12/22 06:32:29;;;;;;;;;73.25;57.50;;;;;;;;12212649;29;8850;-53
2020/12/22 06:38:48;;;;;;;;;69.25;53.25;;;;;;;;12203490;29;8872;-51
2020/12/22 06:44:52;;;;;;;;;61.50;48.75;;;;;;;;12217577;29;8858;-54
2020/12/22 06:50:53;;;;;;;;;72.75;56.25;;;;;;;;12211214;29;9021;-54
2020/12/22 06:56:54;;;;;;;;;53.75;45.00;;;;;;;;12214676;29;8844;-54
2020/12/22 07:03:16;;;;;;;;;49.50;45.50;;;;;;;;12215005;29;8845;-49
2020/12/22 07:09:20;;;;;;;;;50.25;44.75;;;;;;;;12216369;29;9266;-48
2020/12/22 07:15:34;;;;;;;;;52.00;47.25;;;;;;;;12210461;29;8843;-51
2020/12/22 07:21:39;;;;;;;;;64.25;50.75;;;;;;;;12207988;29;8860;-52
2020/12/22 07:27:40;;;;;;;;;56.25;46.00;;;;;;;;12208302;29;9449;-51
2020/12/22 07:33:45;;;;;;;;;52.25;45.00;;;;;;;;12198505;29;8867;-49
2020/12/22 07:39:46;;;;;;;;;50.50;41.25;;;;;;;;12206328;29;8864;-52
2020/12/22 07:45:52;;;;;;;;;51.00;44.25;;;;;;;;12203361;29;8864;-50
2020/12/22 07:51:54;;;;;;;;;56.75;46.00;;;;;;;;12189722;29;8841;-55
2020/12/22 07:57:57;;;;;;;;;54.00;45.50;;;;;;;;12192149;29;8860;-49
2020/12/22 08:03:58;;;;;;;;;49.75;42.00;;;;;;;;12188202;29;10223;-54
2020/12/22 08:10:08;;;;;;;;;56.25;43.75;;;;;;;;12202688;29;8860;-52
2020/12/22 08:16:09;;;;;;;;;56.75;46.50;;;;;;;;12194882;29;8872;-53
2020/12/22 08:22:19;;;;;;;;;69.75;54.25;;;;;;;;12196196;29;8969;-52
2020/12/22 08:28:24;;;;;;;;;59.75;50.25;;;;;;;;12200880;29;8969;-52
2020/12/22 08:34:26;;;;;;;;;58.25;48.25;;;;;;;;12191847;29;8900;-51
2020/12/22 08:40:29;;;;;;;;;65.00;53.00;;;;;;;;12203261;29;8877;-52
2020/12/22 08:46:32;;;;;;;;;55.00;46.75;;;;;;;;12189449;29;8839;-53
2020/12/22 08:52:35;;;;;;;;;64.75;51.00;;;;;;;;12210034;29;8839;-53
2020/12/22 08:58:54;;;;;;;;;55.75;46.75;;;;;;;;12176751;29;8861;-52
2020/12/22 09:04:57;;;;;;;;;64.75;53.25;;;;;;;;12201977;29;8881;-54
2020/12/22 09:11:01;;;;;;;;;60.50;51.50;;;;;;;;12206436;29;8900;-55
2020/12/22 09:17:04;;;;;;;;;57.25;45.25;;;;;;;;12204610;29;8868;-53
2020/12/22 09:23:07;;;;;;;;;53.75;45.75;;;;;;;;12193038;29;8861;-50
2020/12/22 09:29:08;;;;;;;;;58.00;47.50;;;;;;;;12193814;29;9244;-53
2020/12/22 09:35:10;;;;;;;;;49.75;43.25;;;;;;;;12216502;29;8851;-54
2020/12/22 09:41:12;;;;;;;;;53.50;44.50;;;;;;;;12210663;29;8865;-52
2020/12/22 09:47:14;;;;;;;;;46.00;42.50;;;;;;;;12204693;29;8853;-52
2020/12/22 09:53:15;;;;;;;;;57.50;46.25;;;;;;;;12205969;29;8849;-56
2020/12/22 09:59:18;;;;;;;;;64.50;52.00;;;;;;;;12200668;29;8931;-54
2020/12/22 10:05:20;;;;;;;;;48.25;42.00;;;;;;;;12198242;29;8870;-57
2020/12/22 10:11:22;;;;;;;;;55.25;47.75;;;;;;;;12196991;29;8856;-53
2020/12/22 10:17:24;;;;;;;;;66.00;50.50;;;;;;;;12195785;29;8862;-52
2020/12/22 10:23:25;;;;;;;;;56.50;48.25;;;;;;;;12192550;29;9611;-52
2020/12/22 10:29:26;;;;;;;;;72.50;54.25;;;;;;;;12209444;29;8879;-53
2020/12/22 10:35:28;;;;;;;;;66.00;50.00;;;;;;;;12214457;29;8851;-52
2020/12/22 10:41:29;;;;;;;;;61.25;48.50;;;;;;;;12207633;29;8875;-54
2020/12/22 10:47:31;;;;;;;;;55.25;44.50;;;;;;;;12200103;29;8834;-51
2020/12/22 10:53:33;;;;;;;;;58.25;48.25;;;;;;;;12216967;29;8853;-51
2020/12/22 10:59:34;;;;;;;;;61.75;45.50;;;;;;;;12192226;29;8862;-52
2020/12/22 11:06:09;;;;;;;;;50.50;43.25;;;;;;;;12216821;29;8857;-55
2020/12/22 11:12:28;;;;;;;;;61.75;49.75;;;;;;;;12197850;29;8978;-50
2020/12/22 11:18:30;;;;;;;;;49.75;43.50;;;;;;;;12191796;29;8860;-51
2020/12/22 11:24:31;;;;;;;;;48.25;45.00;;;;;;;;12193137;29;8870;-55
2020/12/22 11:30:33;;;;;;;;;34.25;30.75;;;;;;;;12187854;29;9497;-53
2020/12/22 11:36:35;;;;;;;;;53.00;44.25;;;;;;;;12191724;29;8848;-51
2020/12/22 11:42:37;;;;;;;;;52.75;43.00;;;;;;;;12177867;29;8852;-53
2020/12/22 11:48:38;;;;;;;;;44.75;37.75;;;;;;;;12195611;29;8888;-56
2020/12/22 11:54:40;;;;;;;;;48.75;38.00;;;;;;;;12192185;29;8837;-49
2020/12/22 12:00:42;;;;;;;;;40.50;37.25;;;;;;;;12197072;29;8975;-52
2020/12/22 12:06:48;;;;;;;;;53.75;42.50;;;;;;;;12189851;29;8867;-52
2020/12/22 12:12:49;;;;;;;;;46.00;41.00;;;;;;;;12185996;29;8856;-54
2020/12/22 12:18:50;;;;;;;;;59.25;44.75;;;;;;;;12179776;29;9985;-53
2020/12/22 12:24:52;;;;;;;;;52.75;45.00;;;;;;;;12183373;29;8853;-52
2020/12/22 12:30:54;;;;;;;;;52.50;40.50;;;;;;;;12188900;29;8848;-53
2020/12/22 12:36:55;;;;;;;;;58.50;47.25;;;;;;;;12184065;29;8825;-53
2020/12/22 12:42:57;;;;;;;;;46.00;40.25;;;;;;;;12181054;29;9893;-50
2020/12/22 12:48:58;;;;;;;;;42.00;39.00;;;;;;;;12194271;29;8849;-52
2020/12/22 12:55:00;;;;;;;;;50.50;44.75;;;;;;;;12199259;29;8865;-52
2020/12/22 13:01:02;;;;;;;;;51.50;44.00;;;;;;;;12194180;29;8836;-54
2020/12/22 13:07:05;;;;;;;;;40.00;37.25;;;;;;;;12201653;29;8985;-51
2020/12/22 13:13:06;;;;;;;;;49.50;40.50;;;;;;;;12199419;29;8875;-56
2020/12/22 13:19:08;;;;;;;;;49.50;42.50;;;;;;;;12197113;29;9045;-55
2020/12/22 13:25:09;;;;;;;;;56.50;44.25;;;;;;;;12191146;29;8854;-56
2020/12/22 13:31:11;;;;;;;;;57.00;45.75;;;;;;;;12198927;29;8851;-51
2020/12/22 13:37:12;;;;;;;;;54.50;44.75;;;;;;;;12195179;29;8837;-53
2020/12/22 13:43:34;;;;;;;;;50.75;43.75;;;;;;;;12192844;29;8944;-52
2020/12/22 13:49:35;;;;;;;;;64.00;53.25;;;;;;;;12207973;29;8865;-52
2020/12/22 13:55:36;;;;;;;;;68.00;53.25;;;;;;;;12204625;29;8849;-54
2020/12/22 14:01:38;;;;;;;;;67.00;52.25;;;;;;;;12183896;29;8877;-53
2020/12/22 14:07:40;;;;;;;;;71.00;54.75;;;;;;;;12152393;29;8993;-53
2020/12/22 14:13:41;;;;;;;;;62.25;49.00;;;;;;;;12151969;29;8888;-50
2020/12/22 14:19:43;;;;;;;;;66.25;53.75;;;;;;;;12147918;29;8885;-53
2020/12/22 14:25:45;;;;;;;;;63.75;49.50;;;;;;;;12119564;29;8875;-53
2020/12/22 14:31:46;;;;;;;;;64.50;52.50;;;;;;;;12156447;29;9653;-47
2020/12/22 14:37:49;;;;;;;;;44.00;41.25;;;;;;;;12160961;29;8896;-54
2020/12/22 14:43:53;;;;;;;;;55.25;44.50;;;;;;;;12165451;29;8860;-52
2020/12/22 14:49:54;;;;;;;;;45.25;42.00;;;;;;;;12155328;29;8898;-49
2020/12/22 14:55:56;;;;;;;;;42.00;41.00;;;;;;;;12126352;29;8889;-50
2020/12/22 15:01:59;;;;;;;;;44.75;37.50;;;;;;;;12153459;29;8942;-52
2020/12/22 15:08:00;;;;;;;;;53.00;41.25;;;;;;;;12201151;29;8862;-49
2020/12/22 15:14:03;;;;;;;;;61.00;48.00;;;;;;;;12216557;29;9927;-53
2020/12/22 15:20:07;;;;;;;;;55.00;45.00;;;;;;;;12212921;29;8832;-52
2020/12/22 15:26:08;;;;;;;;;54.50;47.25;;;;;;;;12216062;29;8843;-52
2020/12/22 15:32:10;;;;;;;;;55.25;47.75;;;;;;;;12211251;29;8852;-49
2020/12/22 15:38:11;;;;;;;;;64.25;49.25;;;;;;;;12197254;29;8874;-49
2020/12/22 15:44:13;;;;;;;;;70.50;54.75;;;;;;;;12215840;29;9600;-51
2020/12/22 15:50:14;;;;;;;;;74.00;58.75;;;;;;;;12179317;29;8938;-50
2020/12/22 15:56:16;;;;;;;;;69.25;54.75;;;;;;;;12187440;29;8839;-54
2020/12/22 16:02:18;;;;;;;;;67.00;56.75;;;;;;;;12203540;29;9587;-53
2020/12/22 16:08:20;;;;;;;;;71.25;59.00;;;;;;;;12199515;29;9464;-53
2020/12/22 16:14:21;;;;;;;;;71.00;57.75;;;;;;;;12205390;29;8859;-49
2020/12/22 16:20:26;;;;;;;;;68.50;52.00;;;;;;;;12179817;29;8886;-52
2020/12/22 16:26:28;;;;;;;;;66.50;50.25;;;;;;;;12200900;29;8933;-52
2020/12/22 16:32:29;;;;;;;;;72.50;55.25;;;;;;;;12205732;29;8912;-54
2020/12/22 16:38:31;;;;;;;;;62.50;49.25;;;;;;;;12201321;29;8862;-52
2020/12/22 16:44:33;;;;;;;;;48.00;38.25;;;;;;;;12190978;29;8852;-50
2020/12/22 16:50:35;;;;;;;;;66.00;51.75;;;;;;;;12200546;29;8843;-51
2020/12/22 16:56:36;;;;;;;;;65.25;53.25;;;;;;;;12203909;29;8835;-52
2020/12/22 17:02:38;;;;;;;;;68.50;54.50;;;;;;;;12205861;29;8851;-52
2020/12/22 17:08:40;;;;;;;;;66.00;55.75;;;;;;;;12191054;29;9420;-51
2020/12/22 17:14:41;;;;;;;;;68.00;51.00;;;;;;;;12205284;29;8856;-50
2020/12/22 17:20:43;;;;;;;;;67.50;51.75;;;;;;;;12177436;29;8953;-50
2020/12/22 17:26:45;;;;;;;;;70.50;54.75;;;;;;;;12208908;29;8862;-55
2020/12/22 17:32:47;;;;;;;;;64.00;53.25;;;;;;;;12205169;29;8887;-53
2020/12/22 17:38:48;;;;;;;;;66.25;51.00;;;;;;;;12196267;29;8873;-49
2020/12/22 17:44:50;;;;;;;;;61.00;47.50;;;;;;;;12206857;29;8944;-47
2020/12/22 17:50:52;;;;;;;;;57.00;46.25;;;;;;;;12209044;29;8850;-50
2020/12/22 17:56:54;;;;;;;;;62.00;46.75;;;;;;;;12224996;29;8826;-50
2020/12/22 18:02:56;;;;;;;;;65.25;52.75;;;;;;;;12206500;29;8878;-50
2020/12/22 18:08:57;;;;;;;;;59.25;46.75;;;;;;;;12196349;29;8863;-51
2020/12/22 18:14:59;;;;;;;;;58.50;48.25;;;;;;;;12221157;29;8909;-49
2020/12/22 18:21:00;;;;;;;;;67.75;55.50;;;;;;;;12202968;29;8858;-52
2020/12/22 18:27:02;;;;;;;;;64.75;51.25;;;;;;;;12212772;29;8913;-56
2020/12/22 18:33:12;;;;;;;;;64.75;51.50;;;;;;;;12207067;29;8848;-52
2020/12/22 18:39:14;;;;;;;;;64.50;54.00;;;;;;;;12202030;29;9101;-50
2020/12/22 18:45:16;;;;;;;;;52.50;42.25;;;;;;;;12198094;29;9793;-48
2020/12/22 18:51:18;;;;;;;;;66.00;53.25;;;;;;;;12207037;29;8855;-51
2020/12/22 18:57:20;;;;;;;;;63.00;50.00;;;;;;;;12211392;29;8857;-51
2020/12/22 19:03:32;;;;;;;;;54.50;46.75;;;;;;;;12208308;29;8870;-51
2020/12/22 19:09:34;;;;;;;;;56.50;48.75;;;;;;;;12209509;29;8842;-49
2020/12/22 19:15:35;;;;;;;;;56.00;44.00;;;;;;;;12210218;29;8959;-48
2020/12/22 19:21:41;;;;;;;;;58.25;47.50;;;;;;;;12213394;29;8851;-53
2020/12/22 19:27:43;;;;;;;;;60.25;46.00;;;;;;;;12209927;29;8856;-48
2020/12/22 19:33:50;;;;;;;;;58.75;50.00;;;;;;;;12208815;29;9621;-50
2020/12/22 19:39:51;;;;;;;;;64.00;50.50;;;;;;;;12216296;29;8847;-50
2020/12/22 19:45:54;;;;;;;;;58.75;46.50;;;;;;;;12211721;29;8833;-52
2020/12/22 19:51:58;;;;;;;;;45.75;40.50;;;;;;;;12218389;29;8854;-46
2020/12/22 19:57:59;;;;;;;;;65.00;51.00;;;;;;;;12204664;29;9660;-50
2020/12/22 20:04:09;;;;;;;;;55.75;47.75;;;;;;;;12192114;29;8858;-51
2020/12/22 20:10:11;;;;;;;;;45.25;38.50;;;;;;;;12205547;29;8869;-50
2020/12/22 20:16:13;;;;;;;;;59.00;50.75;;;;;;;;12196412;29;8844;-47
2020/12/22 20:22:14;;;;;;;;;64.25;49.50;;;;;;;;12195844;29;8941;-49
2020/12/22 20:28:17;;;;;;;;;60.75;50.25;;;;;;;;12207054;29;8910;-48
2020/12/22 20:34:32;;;;;;;;;63.75;49.75;;;;;;;;12200349;29;8941;-48
2020/12/22 20:40:33;;;;;;;;;66.00;50.50;;;;;;;;12186613;29;8883;-51
2020/12/22 20:46:36;;;;;;;;;62.25;51.00;;;;;;;;12199448;29;9392;-47
2020/12/22 20:52:38;;;;;;;;;59.25;49.50;;;;;;;;12203590;29;8842;-48
2020/12/22 20:58:39;;;;;;;;;63.25;50.00;;;;;;;;12203864;29;9606;-50
2020/12/22 21:04:46;;;;;;;;;67.00;52.50;;;;;;;;12207357;29;8896;-49
2020/12/22 21:10:48;;;;;;;;;64.00;49.25;;;;;;;;12203142;29;8883;-51
2020/12/22 21:16:50;;;;;;;;;51.00;44.75;;;;;;;;12183051;29;8867;-50
2020/12/22 21:22:51;;;;;;;;;58.25;47.50;;;;;;;;12210427;29;8857;-52
2020/12/22 21:28:53;;;;;;;;;52.75;46.25;;;;;;;;12202417;29;8849;-48
2020/12/22 21:35:06;;;;;;;;;60.75;51.25;;;;;;;;12202644;29;8838;-50
2020/12/22 21:41:08;;;;;;;;;60.50;47.75;;;;;;;;12205726;29;8861;-47
2020/12/22 21:47:09;;;;;;;;;60.50;49.25;;;;;;;;12203662;29;8879;-51
2020/12/22 21:53:11;;;;;;;;;63.75;48.25;;;;;;;;12212042;29;8862;-48
2020/12/22 21:59:12;;;;;;;;;56.00;46.50;;;;;;;;12207431;29;9652;-52
2020/12/22 22:05:25;;;;;;;;;57.00;46.75;;;;;;;;12190563;29;8877;-50
2020/12/22 22:11:28;;;;;;;;;51.00;45.75;;;;;;;;12190412;29;8963;-49
2020/12/22 22:17:32;;;;;;;;;51.25;44.25;;;;;;;;12195820;29;8859;-48
2020/12/22 22:23:33;;;;;;;;;59.50;48.50;;;;;;;;12186079;29;9301;-49
2020/12/22 22:29:35;;;;;;;;;49.00;43.50;;;;;;;;12200872;29;8859;-52
2020/12/22 22:35:43;;;;;;;;;45.00;41.75;;;;;;;;12185309;29;8850;-50
2020/12/22 22:41:45;;;;;;;;;42.75;37.25;;;;;;;;12204834;29;8864;-50
2020/12/22 22:47:49;;;;;;;;;43.25;36.75;;;;;;;;12213149;29;8909;-51
2020/12/22 22:53:50;;;;;;;;;59.00;45.25;;;;;;;;12207159;29;8864;-51
2020/12/22 22:59:51;;;;;;;;;51.00;44.25;;;;;;;;12201229;29;8960;-49
2020/12/22 23:06:09;;;;;;;;;54.50;47.75;;;;;;;;12205776;29;9789;-47
2020/12/22 23:12:11;;;;;;;;;64.00;50.00;;;;;;;;12205879;29;8851;-52
2020/12/22 23:18:14;;;;;;;;;57.25;46.25;;;;;;;;12198031;29;8846;-51
2020/12/22 23:24:16;;;;;;;;;58.00;47.25;;;;;;;;12209503;29;8853;-54
2020/12/22 23:30:17;;;;;;;;;59.75;49.75;;;;;;;;12193335;29;8859;-49
2020/12/22 23:36:28;;;;;;;;;43.75;40.00;;;;;;;;12213908;29;8837;-50
2020/12/22 23:42:30;;;;;;;;;66.50;50.25;;;;;;;;12210829;29;8858;-52
2020/12/22 23:48:32;;;;;;;;;53.75;47.00;;;;;;;;12211404;29;8844;-52
2020/12/22 23:54:33;;;;;;;;;54.50;47.75;;;;;;;;12212379;29;8946;-50
